createdAt,value
2023-02-14T00:00:51.257Z,0.30
2023-02-14T00:01:51.219Z,0.20
2023-02-14T00:02:51.310Z,0.20
2023-02-14T00:03:51.200Z,0.30
2023-02-14T00:04:51.237Z,0.30
2023-02-14T00:05:51.187Z,0.30
2023-02-14T00:06:51.188Z,0.20
2023-02-14T00:07:51.585Z,0.20
2023-02-14T00:08:51.148Z,0.20
2023-02-14T00:09:51.136Z,0.20
2023-02-14T00:10:51.134Z,0.20
2023-02-14T00:11:51.114Z,0.30
2023-02-14T00:12:51.118Z,0.20
2023-02-14T00:13:51.593Z,0.20
2023-02-14T00:14:51.086Z,0.20
2023-02-14T00:15:51.200Z,0.30
2023-02-14T00:16:51.060Z,0.30
2023-02-14T00:17:51.085Z,0.30
2023-02-14T00:18:51.079Z,0.30
2023-02-14T00:19:51.568Z,0.20
2023-02-14T00:20:51.019Z,0.30
2023-02-14T00:21:51.005Z,0.30
2023-02-14T00:22:51.049Z,0.40
2023-02-14T00:23:50.996Z,0.30
2023-02-14T00:24:50.976Z,0.40
2023-02-14T00:25:50.968Z,0.20
2023-02-14T00:26:50.952Z,0.30
2023-02-14T00:27:50.967Z,0.20
2023-02-14T00:28:50.929Z,0.20
2023-02-14T00:29:50.977Z,0.20
2023-02-14T00:30:51.048Z,0.10
2023-02-14T00:31:50.962Z,0.10
2023-02-14T00:32:50.882Z,0.10
2023-02-14T00:33:50.886Z,0.10
2023-02-14T00:34:51.008Z,0.10
2023-02-14T00:35:50.860Z,0.10
2023-02-14T00:36:50.878Z,0.10
2023-02-14T00:37:50.833Z,0.10
2023-02-14T00:38:50.841Z,0.00
2023-02-14T00:39:50.805Z,0.10
2023-02-14T00:40:50.798Z,0.20
2023-02-14T00:41:50.784Z,0.20
2023-02-14T00:42:50.799Z,0.20
2023-02-14T00:43:50.763Z,0.10
2023-02-14T00:44:50.755Z,0.10
2023-02-14T00:45:50.800Z,0.20
2023-02-14T00:46:50.731Z,0.20
2023-02-14T00:47:50.739Z,0.10
2023-02-14T00:48:50.705Z,0.10
2023-02-14T00:49:50.696Z,0.20
2023-02-14T00:50:50.710Z,0.10
2023-02-14T00:51:51.096Z,0.10
2023-02-14T00:52:50.675Z,0.10
2023-02-14T00:53:50.655Z,0.10
2023-02-14T00:54:50.666Z,0.10
2023-02-14T00:55:50.634Z,0.10
2023-02-14T00:56:50.667Z,0.10
2023-02-14T00:57:50.611Z,0.10
2023-02-14T00:58:50.606Z,0.20
2023-02-14T00:59:50.586Z,0.10
2023-02-14T01:00:50.603Z,0.10
2023-02-14T01:01:50.567Z,0.20
2023-02-14T01:02:50.660Z,0.20
2023-02-14T01:03:50.548Z,0.20
2023-02-14T01:04:50.532Z,0.20
2023-02-14T01:05:50.521Z,0.30
2023-02-14T01:06:50.561Z,0.30
2023-02-14T01:07:50.504Z,0.30
2023-02-14T01:08:50.677Z,0.30
2023-02-14T01:09:50.481Z,0.30
2023-02-14T01:10:50.494Z,0.30
2023-02-14T01:11:50.451Z,0.40
2023-02-14T01:12:50.463Z,0.40
2023-02-14T01:13:50.435Z,0.60
2023-02-14T01:14:50.429Z,0.40
2023-02-14T01:15:50.418Z,0.50
2023-02-14T01:16:50.491Z,0.30
2023-02-14T01:17:50.399Z,0.30
2023-02-14T01:18:50.379Z,0.40
2023-02-14T01:19:50.436Z,0.40
2023-02-14T01:20:50.359Z,0.40
2023-02-14T01:21:50.363Z,0.30
2023-02-14T01:22:50.335Z,0.30
2023-02-14T01:23:50.327Z,0.30
2023-02-14T01:24:50.317Z,0.50
2023-02-14T01:25:50.305Z,0.40
2023-02-14T01:26:50.328Z,0.40
2023-02-14T01:27:50.284Z,0.50
2023-02-14T01:28:50.268Z,0.30
2023-02-14T01:29:50.282Z,0.40
2023-02-14T01:30:50.279Z,0.40
2023-02-14T01:31:50.274Z,0.40
2023-02-14T01:32:50.225Z,0.50
2023-02-14T01:33:50.216Z,0.60
2023-02-14T01:34:50.203Z,0.60
2023-02-14T01:35:50.190Z,0.60
2023-02-14T01:36:50.198Z,0.90
2023-02-14T01:37:50.168Z,0.80
2023-02-14T01:38:50.372Z,0.90
2023-02-14T01:39:50.149Z,0.80
2023-02-14T01:40:50.140Z,1.00
2023-02-14T01:41:50.139Z,0.80
2023-02-14T01:42:50.211Z,0.90
2023-02-14T01:43:50.104Z,1.10
2023-02-14T01:44:50.101Z,1.10
2023-02-14T01:45:50.133Z,1.00
2023-02-14T01:46:50.098Z,1.10
2023-02-14T01:47:50.061Z,1.10
2023-02-14T01:48:50.052Z,1.30
2023-02-14T01:49:50.048Z,1.60
2023-02-14T01:50:50.037Z,1.70
2023-02-14T01:51:50.044Z,1.60
2023-02-14T01:52:50.013Z,1.70
2023-02-14T01:53:50.004Z,1.70
2023-02-14T01:54:49.987Z,1.80
2023-02-14T01:55:49.974Z,1.30
2023-02-14T01:56:49.965Z,1.20
2023-02-14T01:57:49.981Z,1.10
2023-02-14T01:58:49.969Z,1.00
2023-02-14T01:59:49.939Z,0.80
2023-02-14T02:00:49.991Z,0.70
2023-02-14T02:01:49.938Z,0.90
2023-02-14T02:02:49.903Z,1.20
2023-02-14T02:03:49.896Z,1.30
2023-02-14T02:04:49.876Z,1.60
2023-02-14T02:05:49.876Z,1.90
2023-02-14T02:06:49.941Z,2.10
2023-02-14T02:07:49.848Z,1.70
2023-02-14T02:08:49.837Z,1.80
2023-02-14T02:09:49.824Z,1.50
2023-02-14T02:10:50.601Z,1.60
2023-02-14T02:11:50.116Z,2.00
2023-02-14T02:12:49.790Z,2.10
2023-02-14T02:13:49.780Z,2.00
2023-02-14T02:14:49.807Z,2.40
2023-02-14T02:15:49.757Z,1.90
2023-02-14T02:16:50.197Z,2.20
2023-02-14T02:17:49.852Z,2.10
2023-02-14T02:18:49.873Z,2.70
2023-02-14T02:19:49.713Z,2.30
2023-02-14T02:20:49.716Z,2.00
2023-02-14T02:21:49.825Z,1.50
2023-02-14T02:22:49.680Z,2.10
2023-02-14T02:23:49.672Z,1.70
2023-02-14T02:24:49.676Z,1.90
2023-02-14T02:25:49.676Z,2.20
2023-02-14T02:26:49.635Z,2.00
2023-02-14T02:27:49.815Z,2.20
2023-02-14T02:28:49.639Z,1.80
2023-02-14T02:29:49.653Z,2.00
2023-02-14T02:30:49.749Z,2.10
2023-02-14T02:31:49.754Z,2.40
2023-02-14T02:32:49.569Z,2.50
2023-02-14T02:33:49.556Z,2.30
2023-02-14T02:34:49.566Z,2.10
2023-02-14T02:35:49.540Z,2.30
2023-02-14T02:36:49.658Z,2.40
2023-02-14T02:37:49.605Z,2.20
2023-02-14T02:38:49.500Z,2.20
2023-02-14T02:39:49.504Z,2.30
2023-02-14T02:40:49.477Z,2.00
2023-02-14T02:41:49.489Z,2.00
2023-02-14T02:42:49.500Z,2.30
2023-02-14T02:43:49.460Z,2.20
2023-02-14T02:44:49.446Z,2.30
2023-02-14T02:45:49.465Z,2.40
2023-02-14T02:46:49.436Z,2.20
2023-02-14T02:47:49.405Z,2.30
2023-02-14T02:48:49.390Z,2.20
2023-02-14T02:49:49.406Z,2.20
2023-02-14T02:50:49.438Z,1.90
2023-02-14T02:51:49.359Z,1.90
2023-02-14T02:52:49.365Z,1.90
2023-02-14T02:53:49.347Z,1.90
2023-02-14T02:54:49.334Z,1.90
2023-02-14T02:55:49.316Z,2.00
2023-02-14T02:56:49.322Z,1.80
2023-02-14T02:57:49.294Z,1.80
2023-02-14T02:58:49.283Z,1.90
2023-02-14T02:59:50.355Z,1.90
2023-02-14T03:00:49.271Z,2.00
2023-02-14T03:01:49.365Z,2.00
2023-02-14T03:02:49.261Z,1.60
2023-02-14T03:03:49.238Z,1.70
2023-02-14T03:04:49.279Z,1.60
2023-02-14T03:05:49.203Z,1.60
2023-02-14T03:06:49.206Z,1.70
2023-02-14T03:07:49.188Z,2.30
2023-02-14T03:08:49.177Z,1.80
2023-02-14T03:09:49.169Z,1.80
2023-02-14T03:10:50.104Z,2.00
2023-02-14T03:11:49.631Z,2.10
2023-02-14T03:12:49.130Z,2.10
2023-02-14T03:13:49.114Z,2.10
2023-02-14T03:14:49.126Z,2.00
2023-02-14T03:15:49.116Z,2.10
2023-02-14T03:16:49.095Z,2.10
2023-02-14T03:17:49.072Z,1.80
2023-02-14T03:18:49.079Z,1.90
2023-02-14T03:19:49.074Z,2.00
2023-02-14T03:20:49.040Z,2.10
2023-02-14T03:21:49.028Z,1.90
2023-02-14T03:22:49.064Z,1.80
2023-02-14T03:23:49.006Z,1.70
2023-02-14T03:24:49.000Z,1.70
2023-02-14T03:25:48.984Z,1.70
2023-02-14T03:26:48.976Z,1.80
2023-02-14T03:27:49.611Z,1.70
2023-02-14T03:28:48.973Z,1.60
2023-02-14T03:29:48.972Z,1.50
2023-02-14T03:30:49.036Z,1.40
2023-02-14T03:31:49.069Z,1.60
2023-02-14T03:32:48.907Z,1.70
2023-02-14T03:33:48.934Z,1.80
2023-02-14T03:34:48.910Z,1.80
2023-02-14T03:35:48.877Z,1.90
2023-02-14T03:36:48.869Z,1.60
2023-02-14T03:37:48.852Z,1.80
2023-02-14T03:38:48.865Z,1.70
2023-02-14T03:39:48.832Z,1.70
2023-02-14T03:40:48.820Z,1.50
2023-02-14T03:41:48.817Z,1.40
2023-02-14T03:42:48.796Z,1.40
2023-02-14T03:43:48.797Z,1.40
2023-02-14T03:44:49.108Z,1.50
2023-02-14T03:45:48.767Z,1.70
2023-02-14T03:46:48.751Z,1.50
2023-02-14T03:47:48.755Z,1.70
2023-02-14T03:48:48.752Z,1.20
2023-02-14T03:49:48.746Z,1.20
2023-02-14T03:50:48.729Z,1.50
2023-02-14T03:51:48.718Z,1.30
2023-02-14T03:52:48.684Z,1.40
2023-02-14T03:53:48.689Z,1.40
2023-02-14T03:54:48.667Z,1.50
2023-02-14T03:55:48.668Z,1.40
2023-02-14T03:56:48.640Z,1.40
2023-02-14T03:57:48.634Z,1.40
2023-02-14T03:58:48.637Z,1.40
2023-02-14T03:59:48.612Z,1.50
2023-02-14T04:00:48.605Z,1.30
2023-02-14T04:01:48.616Z,1.40
2023-02-14T04:02:48.599Z,1.50
2023-02-14T04:03:48.668Z,1.40
2023-02-14T04:04:48.556Z,1.80
2023-02-14T04:05:48.592Z,1.60
2023-02-14T04:06:48.573Z,1.80
2023-02-14T04:07:48.522Z,1.60
2023-02-14T04:08:48.535Z,1.40
2023-02-14T04:09:48.498Z,1.60
2023-02-14T04:10:48.492Z,1.40
2023-02-14T04:11:48.476Z,1.40
2023-02-14T04:12:48.468Z,1.40
2023-02-14T04:13:48.470Z,1.70
2023-02-14T04:14:48.448Z,1.60
2023-02-14T04:15:48.518Z,1.90
2023-02-14T04:16:48.457Z,1.80
2023-02-14T04:17:48.413Z,1.80
2023-02-14T04:18:48.411Z,1.90
2023-02-14T04:19:48.399Z,1.50
2023-02-14T04:20:48.380Z,1.80
2023-02-14T04:21:48.366Z,1.80
2023-02-14T04:22:48.599Z,1.80
2023-02-14T04:23:48.348Z,1.90
2023-02-14T04:24:48.354Z,2.90
2023-02-14T04:25:48.322Z,2.30
2023-02-14T04:26:48.310Z,2.30
2023-02-14T04:27:48.299Z,2.60
2023-02-14T04:28:48.282Z,2.40
2023-02-14T04:29:48.408Z,2.30
2023-02-14T04:30:48.301Z,2.30
2023-02-14T04:31:48.435Z,2.30
2023-02-14T04:32:48.244Z,2.40
2023-02-14T04:33:48.437Z,2.50
2023-02-14T04:34:48.223Z,2.90
2023-02-14T04:35:48.255Z,2.60
2023-02-14T04:36:48.198Z,2.90
2023-02-14T04:37:48.190Z,2.50
2023-02-14T04:38:48.245Z,3.10
2023-02-14T04:39:49.133Z,2.60
2023-02-14T04:40:48.184Z,3.00
2023-02-14T04:41:48.140Z,2.70
2023-02-14T04:42:48.132Z,2.30
2023-02-14T04:43:48.121Z,2.30
2023-02-14T04:44:48.108Z,2.60
2023-02-14T04:45:48.110Z,2.40
2023-02-14T04:46:48.148Z,2.70
2023-02-14T04:47:48.081Z,2.90
2023-02-14T04:48:48.066Z,2.70
2023-02-14T04:49:48.057Z,2.50
2023-02-14T04:50:48.064Z,2.60
2023-02-14T04:51:48.041Z,2.60
2023-02-14T04:52:48.029Z,2.60
2023-02-14T04:53:48.023Z,2.60
2023-02-14T04:54:48.015Z,2.70
2023-02-14T04:55:47.999Z,2.70
2023-02-14T04:56:48.008Z,2.70
2023-02-14T04:57:47.965Z,2.40
2023-02-14T04:58:47.964Z,2.50
2023-02-14T04:59:47.943Z,2.70
2023-02-14T05:00:47.972Z,3.00
2023-02-14T05:01:47.946Z,3.00
2023-02-14T05:02:47.910Z,3.10
2023-02-14T05:03:47.900Z,3.20
2023-02-14T05:04:49.756Z,3.40
2023-02-14T05:05:47.892Z,3.10
2023-02-14T05:06:47.864Z,3.10
2023-02-14T05:07:48.035Z,3.00
2023-02-14T05:08:47.840Z,3.40
2023-02-14T05:09:48.628Z,3.80
2023-02-14T05:10:47.872Z,3.80
2023-02-14T05:11:47.808Z,2.90
2023-02-14T05:12:47.796Z,3.20
2023-02-14T05:13:47.791Z,2.60
2023-02-14T05:14:47.778Z,2.70
2023-02-14T05:15:47.783Z,3.40
2023-02-14T05:16:47.848Z,3.70
2023-02-14T05:17:47.761Z,3.70
2023-02-14T05:18:47.724Z,3.40
2023-02-14T05:19:47.721Z,3.30
2023-02-14T05:20:47.707Z,3.70
2023-02-14T05:21:47.713Z,3.70
2023-02-14T05:22:47.684Z,3.90
2023-02-14T05:23:47.674Z,3.50
2023-02-14T05:24:47.678Z,3.90
2023-02-14T05:25:47.669Z,3.70
2023-02-14T05:26:47.678Z,3.60
2023-02-14T05:27:47.630Z,4.00
2023-02-14T05:28:47.626Z,3.30
2023-02-14T05:29:47.675Z,4.20
2023-02-14T05:30:47.703Z,4.50
2023-02-14T05:31:47.612Z,3.10
2023-02-14T05:32:47.745Z,3.40
2023-02-14T05:33:47.567Z,3.80
2023-02-14T05:34:47.558Z,3.40
2023-02-14T05:35:47.556Z,3.30
2023-02-14T05:36:47.528Z,3.60
2023-02-14T05:37:47.520Z,4.00
2023-02-14T05:38:47.507Z,3.50
2023-02-14T05:39:47.498Z,3.70
2023-02-14T05:40:47.508Z,3.90
2023-02-14T05:41:47.474Z,3.90
2023-02-14T05:42:47.481Z,4.10
2023-02-14T05:43:47.459Z,4.30
2023-02-14T05:44:47.444Z,3.90
2023-02-14T05:45:48.184Z,3.90
2023-02-14T05:46:47.441Z,3.70
2023-02-14T05:47:47.413Z,4.10
2023-02-14T05:48:47.405Z,4.10
2023-02-14T05:49:47.428Z,4.50
2023-02-14T05:50:47.392Z,4.30
2023-02-14T05:51:47.364Z,3.80
2023-02-14T05:52:47.356Z,4.20
2023-02-14T05:53:47.384Z,5.20
2023-02-14T05:54:47.340Z,4.90
2023-02-14T05:55:47.337Z,4.70
2023-02-14T05:56:47.309Z,4.60
2023-02-14T05:58:54.344Z,4.30
2023-02-14T05:59:47.284Z,3.70
2023-02-14T06:00:47.488Z,4.70
2023-02-14T06:01:47.298Z,4.50
2023-02-14T06:02:47.247Z,4.10
2023-02-14T06:03:47.243Z,4.60
2023-02-14T06:04:48.700Z,4.00
2023-02-14T06:05:47.216Z,4.10
2023-02-14T06:06:47.230Z,3.90
2023-02-14T06:07:47.195Z,3.40
2023-02-14T06:08:47.195Z,3.70
2023-02-14T06:09:47.172Z,3.20
2023-02-14T06:10:47.192Z,3.20
2023-02-14T06:11:47.165Z,3.80
2023-02-14T06:12:47.140Z,4.50
2023-02-14T06:13:47.130Z,4.70
2023-02-14T06:14:47.139Z,4.20
2023-02-14T06:15:47.104Z,3.60
2023-02-14T06:16:47.295Z,3.60
2023-02-14T06:17:47.281Z,3.90
2023-02-14T06:18:47.073Z,4.10
2023-02-14T06:19:47.066Z,3.00
2023-02-14T06:20:47.055Z,3.30
2023-02-14T06:21:47.139Z,3.60
2023-02-14T06:22:47.031Z,3.60
2023-02-14T06:23:47.026Z,3.70
2023-02-14T06:24:47.008Z,3.70
2023-02-14T06:25:46.992Z,3.90
2023-02-14T06:26:47.007Z,3.20
2023-02-14T06:27:49.188Z,3.60
2023-02-14T06:28:46.980Z,4.20
2023-02-14T06:29:46.983Z,3.90
2023-02-14T06:30:47.064Z,4.30
2023-02-14T06:31:47.186Z,4.40
2023-02-14T06:32:46.919Z,4.50
2023-02-14T06:33:46.920Z,4.30
2023-02-14T06:34:47.044Z,4.20
2023-02-14T06:35:46.900Z,4.60
2023-02-14T06:36:46.875Z,4.10
2023-02-14T06:37:46.866Z,5.00
2023-02-14T06:38:46.887Z,5.10
2023-02-14T06:39:46.873Z,5.10
2023-02-14T06:40:46.832Z,5.20
2023-02-14T06:41:46.818Z,5.10
2023-02-14T06:42:46.811Z,5.20
2023-02-14T06:43:46.802Z,4.80
2023-02-14T06:44:46.798Z,5.10
2023-02-14T06:45:46.869Z,4.70
2023-02-14T06:46:46.787Z,5.20
2023-02-14T06:47:46.752Z,5.80
2023-02-14T06:48:46.742Z,5.50
2023-02-14T06:49:46.871Z,5.40
2023-02-14T06:50:46.720Z,4.70
2023-02-14T06:51:46.703Z,5.70
2023-02-14T06:52:46.703Z,4.20
2023-02-14T06:53:46.926Z,4.20
2023-02-14T06:54:46.692Z,4.90
2023-02-14T06:55:46.664Z,5.30
2023-02-14T06:56:46.657Z,5.40
2023-02-14T06:57:46.646Z,4.20
2023-02-14T06:58:46.657Z,4.80
2023-02-14T06:59:46.620Z,5.10
2023-02-14T07:00:46.618Z,5.20
2023-02-14T07:01:46.662Z,5.40
2023-02-14T07:02:46.690Z,4.60
2023-02-14T07:03:46.590Z,6.20
2023-02-14T07:04:46.568Z,3.80
2023-02-14T07:05:46.556Z,3.80
2023-02-14T07:06:46.546Z,4.20
2023-02-14T07:07:46.545Z,3.90
2023-02-14T07:08:46.530Z,3.60
2023-02-14T07:09:46.513Z,4.50
2023-02-14T07:10:46.499Z,3.50
2023-02-14T07:11:46.490Z,3.50
2023-02-14T07:12:46.498Z,3.60
2023-02-14T07:13:49.149Z,3.60
2023-02-14T07:14:46.451Z,5.70
2023-02-14T07:15:46.486Z,4.90
2023-02-14T07:16:46.432Z,3.60
2023-02-14T07:17:46.439Z,3.00
2023-02-14T07:18:46.430Z,2.30
2023-02-14T07:19:46.407Z,1.70
2023-02-14T07:20:46.384Z,2.00
2023-02-14T07:21:46.376Z,2.90
2023-02-14T07:22:46.384Z,2.40
2023-02-14T07:23:46.591Z,2.20
2023-02-14T07:24:46.343Z,2.70
2023-02-14T07:25:46.331Z,1.80
2023-02-14T07:26:46.335Z,1.90
2023-02-14T07:27:46.554Z,2.00
2023-02-14T07:28:46.307Z,2.10
2023-02-14T07:29:46.287Z,2.70
2023-02-14T07:30:46.596Z,2.40
2023-02-14T07:31:46.465Z,2.30
2023-02-14T07:32:46.260Z,2.60
2023-02-14T07:33:46.247Z,2.30
2023-02-14T07:34:46.254Z,3.00
2023-02-14T07:35:46.218Z,2.60
2023-02-14T07:36:46.231Z,2.80
2023-02-14T07:37:46.195Z,2.30
2023-02-14T07:38:46.198Z,2.30
2023-02-14T07:39:46.173Z,2.20
2023-02-14T07:40:46.169Z,2.10
2023-02-14T07:41:46.159Z,2.40
2023-02-14T07:42:46.303Z,3.50
2023-02-14T07:43:46.148Z,2.10
2023-02-14T07:44:46.137Z,2.90
2023-02-14T07:45:46.109Z,4.60
2023-02-14T07:46:46.230Z,4.70
2023-02-14T07:47:46.085Z,2.70
2023-02-14T07:48:46.076Z,1.90
2023-02-14T07:49:46.067Z,1.90
2023-02-14T07:50:46.172Z,2.60
2023-02-14T07:51:46.141Z,2.40
2023-02-14T07:52:46.034Z,1.90
2023-02-14T07:53:46.033Z,4.20
2023-02-14T07:54:46.007Z,7.10
2023-02-14T07:55:45.996Z,7.60
2023-02-14T07:56:46.029Z,2.50
2023-02-14T07:57:46.014Z,5.10
2023-02-14T07:58:45.968Z,4.00
2023-02-14T07:59:46.034Z,2.90
2023-02-14T08:00:45.939Z,2.10
2023-02-14T08:01:45.984Z,1.50
2023-02-14T08:02:45.942Z,1.50
2023-02-14T08:03:46.045Z,1.90
2023-02-14T08:04:45.921Z,2.10
2023-02-14T08:05:45.890Z,2.30
2023-02-14T08:06:45.918Z,1.60
2023-02-14T08:07:45.870Z,6.60
2023-02-14T08:08:45.866Z,11.20
2023-02-14T08:09:45.844Z,5.70
2023-02-14T08:10:45.854Z,8.50
2023-02-14T08:11:45.820Z,2.50
2023-02-14T08:12:45.811Z,1.30
2023-02-14T08:13:45.798Z,1.50
2023-02-14T08:14:45.803Z,1.60
2023-02-14T08:15:45.824Z,1.90
2023-02-14T08:16:45.770Z,2.40
2023-02-14T08:17:45.754Z,3.00
2023-02-14T08:18:45.746Z,2.00
2023-02-14T08:19:45.729Z,1.50
2023-02-14T08:20:45.738Z,1.80
2023-02-14T08:21:45.710Z,2.00
2023-02-14T08:22:45.891Z,1.20
2023-02-14T08:23:47.556Z,1.30
2023-02-14T08:24:45.680Z,2.70
2023-02-14T08:25:45.688Z,1.40
2023-02-14T08:26:45.652Z,0.60
2023-02-14T08:27:45.644Z,0.40
2023-02-14T08:28:45.635Z,0.30
2023-02-14T08:29:45.618Z,1.20
2023-02-14T08:30:45.628Z,1.10
2023-02-14T08:31:45.760Z,2.20
2023-02-14T08:32:45.625Z,1.40
2023-02-14T08:33:46.257Z,0.70
2023-02-14T08:34:45.564Z,6.10
2023-02-14T08:35:45.562Z,0.30
2023-02-14T08:36:45.545Z,0.30
2023-02-14T08:37:45.594Z,0.40
2023-02-14T08:38:45.538Z,0.40
2023-02-14T08:39:45.522Z,0.60
2023-02-14T08:40:45.517Z,1.10
2023-02-14T08:41:45.492Z,0.80
2023-02-14T08:42:45.489Z,1.00
2023-02-14T08:43:45.460Z,1.10
2023-02-14T08:44:45.455Z,1.50
2023-02-14T08:45:45.477Z,1.70
2023-02-14T08:46:45.520Z,1.50
2023-02-14T08:47:45.459Z,1.00
2023-02-14T08:48:45.427Z,2.10
2023-02-14T08:49:45.412Z,2.90
2023-02-14T08:50:45.389Z,2.50
2023-02-14T08:51:45.377Z,3.00
2023-02-14T08:52:45.363Z,3.30
2023-02-14T08:53:45.383Z,3.80
2023-02-14T08:54:45.363Z,3.90
2023-02-14T08:55:45.390Z,3.90
2023-02-14T08:56:45.330Z,3.50
2023-02-14T08:57:45.342Z,4.10
2023-02-14T08:58:45.317Z,4.50
2023-02-14T08:59:45.326Z,4.40
2023-02-14T09:00:45.365Z,4.30
2023-02-14T09:01:45.293Z,3.90
2023-02-14T09:02:45.331Z,4.20
2023-02-14T09:03:45.327Z,4.00
2023-02-14T09:04:45.238Z,4.10
2023-02-14T09:05:45.330Z,4.20
2023-02-14T09:06:45.210Z,4.40
2023-02-14T09:07:45.203Z,4.00
2023-02-14T09:08:45.212Z,4.00
2023-02-14T09:09:45.710Z,4.30
2023-02-14T09:10:45.196Z,4.30
2023-02-14T09:11:45.155Z,4.10
2023-02-14T09:12:45.145Z,4.80
2023-02-14T09:13:45.150Z,4.30
2023-02-14T09:14:45.129Z,4.50
2023-02-14T09:15:45.116Z,4.40
2023-02-14T09:16:45.171Z,4.70
2023-02-14T09:17:45.131Z,5.00
2023-02-14T09:18:45.097Z,4.50
2023-02-14T09:19:45.070Z,4.70
2023-02-14T09:20:45.062Z,4.40
2023-02-14T09:21:45.042Z,4.20
2023-02-14T09:22:47.077Z,4.80
2023-02-14T09:23:45.039Z,4.80
2023-02-14T09:24:45.014Z,4.90
2023-02-14T09:25:45.001Z,4.60
2023-02-14T09:26:45.088Z,5.10
2023-02-14T09:27:44.979Z,5.10
2023-02-14T09:28:45.242Z,6.60
2023-02-14T09:29:44.959Z,5.10
2023-02-14T09:30:44.990Z,5.10
2023-02-14T09:31:45.093Z,4.80
2023-02-14T09:32:44.922Z,4.80
2023-02-14T09:33:44.908Z,4.80
2023-02-14T09:34:44.925Z,5.30
2023-02-14T09:35:44.885Z,4.70
2023-02-14T09:36:44.888Z,5.10
2023-02-14T09:37:44.866Z,5.10
2023-02-14T09:38:44.855Z,5.00
2023-02-14T09:39:44.846Z,4.80
2023-02-14T09:40:44.848Z,5.10
2023-02-14T09:41:44.849Z,5.20
2023-02-14T09:42:44.854Z,5.30
2023-02-14T09:43:44.805Z,5.10
2023-02-14T09:44:44.821Z,5.10
2023-02-14T09:45:44.866Z,5.20
2023-02-14T09:46:44.766Z,5.20
2023-02-14T09:47:44.771Z,5.40
2023-02-14T09:48:44.799Z,4.50
2023-02-14T09:49:44.855Z,4.70
2023-02-14T09:50:44.789Z,5.00
2023-02-14T09:51:44.707Z,5.20
2023-02-14T09:52:44.698Z,5.20
2023-02-14T09:53:44.682Z,5.20
2023-02-14T09:54:44.688Z,5.30
2023-02-14T09:55:44.666Z,4.50
2023-02-14T09:56:51.210Z,5.20
2023-02-14T09:57:45.638Z,5.30
2023-02-14T09:58:44.649Z,4.70
2023-02-14T09:59:44.638Z,4.50
2023-02-14T10:00:44.805Z,4.80
2023-02-14T10:01:44.598Z,4.40
2023-02-14T10:02:44.597Z,4.60
2023-02-14T10:03:44.594Z,6.80
2023-02-14T10:04:44.565Z,4.60
2023-02-14T10:05:44.564Z,1.20
2023-02-14T10:06:44.543Z,1.80
2023-02-14T10:07:44.530Z,2.90
2023-02-14T10:08:44.523Z,3.10
2023-02-14T10:09:44.511Z,4.20
2023-02-14T10:10:44.516Z,3.60
2023-02-14T10:11:44.487Z,3.10
2023-02-14T10:12:44.470Z,3.50
2023-02-14T10:13:44.475Z,3.40
2023-02-14T10:14:44.477Z,3.30
2023-02-14T10:15:44.455Z,3.20
2023-02-14T10:16:44.449Z,3.70
2023-02-14T10:17:44.440Z,3.90
2023-02-14T10:18:44.407Z,4.00
2023-02-14T10:19:44.401Z,4.20
2023-02-14T10:20:44.403Z,4.20
2023-02-14T10:21:45.994Z,5.20
2023-02-14T10:22:44.362Z,6.50
2023-02-14T10:23:44.357Z,5.30
2023-02-14T10:24:44.350Z,5.20
2023-02-14T10:25:44.384Z,5.10
2023-02-14T10:26:44.338Z,4.90
2023-02-14T10:27:44.336Z,4.50
2023-02-14T10:28:44.374Z,4.40
2023-02-14T10:29:44.302Z,3.70
2023-02-14T10:30:44.684Z,3.70
2023-02-14T10:31:44.494Z,3.60
2023-02-14T10:32:44.253Z,3.80
2023-02-14T10:33:44.249Z,3.70
2023-02-14T10:34:44.253Z,3.70
2023-02-14T10:35:44.234Z,3.50
2023-02-14T10:36:44.209Z,3.40
2023-02-14T10:37:44.201Z,3.70
2023-02-14T10:38:44.191Z,5.20
2023-02-14T10:39:44.191Z,5.10
2023-02-14T10:40:44.186Z,3.20
2023-02-14T10:41:44.155Z,2.90
2023-02-14T10:42:44.144Z,2.90
2023-02-14T10:43:44.149Z,3.00
2023-02-14T10:44:44.129Z,3.00
2023-02-14T10:45:44.210Z,3.20
2023-02-14T10:46:44.136Z,3.10
2023-02-14T10:47:44.130Z,3.20
2023-02-14T10:48:44.090Z,3.30
2023-02-14T10:49:44.112Z,3.10
2023-02-14T10:50:44.078Z,3.40
2023-02-14T10:51:44.831Z,3.10
2023-02-14T10:52:44.180Z,3.10
2023-02-14T10:53:44.042Z,3.60
2023-02-14T10:54:44.015Z,3.50
2023-02-14T10:55:44.022Z,3.30
2023-02-14T10:56:43.991Z,3.10
2023-02-14T10:57:43.988Z,2.80
2023-02-14T10:58:43.968Z,2.80
2023-02-14T10:59:44.043Z,2.70
2023-02-14T11:00:43.970Z,2.90
2023-02-14T11:01:44.047Z,2.80
2023-02-14T11:02:43.926Z,2.50
2023-02-14T11:03:44.328Z,2.60
2023-02-14T11:04:43.902Z,3.20
2023-02-14T11:05:46.594Z,3.10
2023-02-14T11:06:43.883Z,3.10
2023-02-14T11:07:43.870Z,2.90
2023-02-14T11:08:43.859Z,2.70
2023-02-14T11:09:43.849Z,2.60
2023-02-14T11:10:43.873Z,2.60
2023-02-14T11:11:43.831Z,2.90
2023-02-14T11:12:43.817Z,2.50
2023-02-14T11:13:43.806Z,2.50
2023-02-14T11:14:43.810Z,2.70
2023-02-14T11:15:43.846Z,4.20
2023-02-14T11:16:43.795Z,3.40
2023-02-14T11:17:43.771Z,4.30
2023-02-14T11:18:43.749Z,4.30
2023-02-14T11:19:43.740Z,4.30
2023-02-14T11:20:43.720Z,4.20
2023-02-14T11:21:43.942Z,4.40
2023-02-14T11:22:43.704Z,4.60
2023-02-14T11:23:43.709Z,0.80
2023-02-14T11:24:43.681Z,0.00
2023-02-14T11:25:44.023Z,0.00
2023-02-14T11:26:43.662Z,0.00
2023-02-14T11:27:43.648Z,0.00
2023-02-14T11:28:43.649Z,0.00
2023-02-14T11:29:43.651Z,0.00
2023-02-14T11:30:43.736Z,0.00
2023-02-14T11:31:43.770Z,0.00
2023-02-14T11:32:43.592Z,0.00
2023-02-14T11:33:43.583Z,0.00
2023-02-14T11:34:43.574Z,0.00
2023-02-14T11:35:43.561Z,0.00
2023-02-14T11:36:43.544Z,0.00
2023-02-14T11:37:43.552Z,0.00
2023-02-14T11:38:43.532Z,0.00
2023-02-14T11:39:43.559Z,0.00
2023-02-14T11:40:43.545Z,0.00
2023-02-14T11:41:43.503Z,0.00
2023-02-14T11:42:43.988Z,0.00
2023-02-14T11:43:43.482Z,0.00
2023-02-14T11:44:43.480Z,0.00
2023-02-14T11:45:43.496Z,0.00
2023-02-14T11:46:52.775Z,0.00
2023-02-14T11:47:44.443Z,0.00
2023-02-14T11:48:43.414Z,0.00
2023-02-14T11:49:43.424Z,0.00
2023-02-14T11:50:43.394Z,0.00
2023-02-14T11:51:43.385Z,0.00
2023-02-14T11:52:43.374Z,0.00
2023-02-14T11:53:43.388Z,0.00
2023-02-14T11:54:43.348Z,0.00
2023-02-14T11:55:43.357Z,0.00
2023-02-14T11:56:43.329Z,0.00
2023-02-14T11:57:43.487Z,0.00
2023-02-14T11:58:50.492Z,0.00
2023-02-14T11:59:43.345Z,0.00
2023-02-14T12:00:43.291Z,0.00
2023-02-14T12:01:43.344Z,0.00
2023-02-14T12:02:43.293Z,0.00
2023-02-14T12:03:43.406Z,0.00
2023-02-14T12:04:46.590Z,0.00
2023-02-14T12:05:43.244Z,0.00
2023-02-14T12:06:43.220Z,0.00
2023-02-14T12:07:43.217Z,0.00
2023-02-14T12:08:43.203Z,0.00
2023-02-14T12:09:43.225Z,0.00
2023-02-14T12:10:43.181Z,0.00
2023-02-14T12:11:43.170Z,0.00
2023-02-14T12:12:43.151Z,0.00
2023-02-14T12:13:43.203Z,0.00
2023-02-14T12:14:43.188Z,0.00
2023-02-14T12:15:43.231Z,0.00
2023-02-14T12:16:43.149Z,0.00
2023-02-14T12:17:43.113Z,0.00
2023-02-14T12:18:43.111Z,0.00
2023-02-14T12:19:43.104Z,0.00
2023-02-14T12:20:43.088Z,0.00
2023-02-14T12:21:43.068Z,0.00
2023-02-14T12:22:43.070Z,0.00
2023-02-14T12:23:43.041Z,0.00
2023-02-14T12:24:43.090Z,0.00
2023-02-14T12:25:43.010Z,0.00
2023-02-14T12:26:43.003Z,0.00
2023-02-14T12:27:42.995Z,0.00
2023-02-14T12:28:42.989Z,0.00
2023-02-14T12:29:43.093Z,0.00
2023-02-14T12:30:42.973Z,0.00
2023-02-14T12:31:43.172Z,0.00
2023-02-14T12:32:42.937Z,0.00
2023-02-14T12:33:42.927Z,0.00
2023-02-14T12:34:42.917Z,0.00
2023-02-14T12:35:42.920Z,0.00
2023-02-14T12:36:42.929Z,0.00
2023-02-14T12:37:43.566Z,0.00
2023-02-14T12:38:42.882Z,0.00
2023-02-14T12:39:43.106Z,0.00
2023-02-14T12:40:42.838Z,0.00
2023-02-14T12:41:42.910Z,0.00
2023-02-14T12:42:42.855Z,0.00
2023-02-14T12:43:42.815Z,0.00
2023-02-14T12:44:42.794Z,0.00
2023-02-14T12:45:42.815Z,0.00
2023-02-14T12:46:42.809Z,0.00
2023-02-14T12:47:42.771Z,0.00
2023-02-14T12:48:42.797Z,0.00
2023-02-14T12:49:42.753Z,0.00
2023-02-14T12:50:42.901Z,0.00
2023-02-14T12:51:42.762Z,0.00
2023-02-14T12:52:42.720Z,0.00
2023-02-14T12:53:42.704Z,0.00
2023-02-14T12:54:42.689Z,1.20
2023-02-14T12:55:42.678Z,0.70
2023-02-14T12:56:42.698Z,0.40
2023-02-14T12:57:42.657Z,0.30
2023-02-14T12:58:42.646Z,0.30
2023-02-14T12:59:42.672Z,0.20
2023-02-14T13:00:42.635Z,0.20
2023-02-14T13:01:42.701Z,0.20
2023-02-14T13:02:42.735Z,0.30
2023-02-14T13:03:42.595Z,0.30
2023-02-14T13:04:42.583Z,0.30
2023-02-14T13:05:42.603Z,0.30
2023-02-14T13:06:42.557Z,0.30
2023-02-14T13:07:42.682Z,0.30
2023-02-14T13:08:42.548Z,0.20
2023-02-14T13:09:42.629Z,0.20
2023-02-14T13:10:42.537Z,0.10
2023-02-14T13:11:42.508Z,0.00
2023-02-14T13:12:42.487Z,0.00
2023-02-14T13:13:43.288Z,0.00
2023-02-14T13:14:42.469Z,0.00
2023-02-14T13:15:42.482Z,0.00
2023-02-14T13:16:42.442Z,0.00
2023-02-14T13:17:42.433Z,0.00
2023-02-14T13:18:42.423Z,0.00
2023-02-14T13:19:42.436Z,0.00